ADDS METAR Data INFO
IDs: Format: Raw Decoded Include TAF

Data at: 0754 UTC 17 Oct 2017

KHSA 170155Z 36005KT 10SM CLR 15/13 A3017
KHSA 170050Z 02003KT 10SM CLR 16/14 A3016
KHSA 162353Z 01006KT 10SM CLR 19/10 A3012
KHSA 162255Z 02005KT 10SM CLR 20/10 A3009
KHSA 162155Z 01012KT 10SM CLR 23/09 A3008
KHSA 161950Z 01010G18KT 10SM CLR 23/09 A3007
KHSA 161850Z 36010G18KT 10SM CLR 23/10 A3008
KHSA 161750Z 02010G18KT 10SM CLR 22/11 A3012
KHSA 161650Z 35010G19KT 330V030 10SM FEW015 SCT035 21/14 A3014
KHSA 161555Z 36012G20KT 7SM SCT012 BKN040 18/15 A3017
KHSA 161455Z 36012G20KT 7SM OVC012 17/15 A3017
KHSA 161350Z 01010G15KT 7SM OVC012 18/16 A3015
KHSA 161255Z 01010KT 7SM OVC012 19/17 A3013
KHSA 161215Z 02010G15KT 7SM BKN012 19/17 A3010
KHSA 161155Z 00000KT 10SM SCT012 BKN040 19/18 A3009
KHSA 152355Z 00000KT 10SM SCT005 BKN055 23/23 A3004
KHSA 152257Z 00000KT 10SM SCT005 SCT025 BKN070 23/23 A3002
KHSA 152152Z VRB03KT 10SM SCT003 BKN025 23/23 A3003
KHSA 152050Z 19003KT 7SM FEW005 SCT030 BKN070 22/22 A3001